sensor_id;sensor_type;location;lat;lon;timestamp;P1;durP1;ratioP1;P2;durP2;ratioP2
48403;SDS011;34202;52.536;6.042;2023-12-14T00:01:38;9.70;;;8.70;;
48403;SDS011;34202;52.536;6.042;2023-12-14T00:06:40;9.50;;;8.00;;
48403;SDS011;34202;52.536;6.042;2023-12-14T00:11:40;9.10;;;8.10;;
48403;SDS011;34202;52.536;6.042;2023-12-14T00:16:41;11.30;;;9.30;;
48403;SDS011;34202;52.536;6.042;2023-12-14T00:21:41;14.40;;;10.50;;
48403;SDS011;34202;52.536;6.042;2023-12-14T00:26:41;11.30;;;9.80;;
48403;SDS011;34202;52.536;6.042;2023-12-14T00:31:42;10.30;;;8.70;;
48403;SDS011;34202;52.536;6.042;2023-12-14T00:36:42;11.80;;;10.40;;
48403;SDS011;34202;52.536;6.042;2023-12-14T00:41:42;11.90;;;10.30;;
48403;SDS011;34202;52.536;6.042;2023-12-14T00:46:43;10.70;;;9.60;;
48403;SDS011;34202;52.536;6.042;2023-12-14T00:51:43;9.80;;;8.00;;
48403;SDS011;34202;52.536;6.042;2023-12-14T00:56:43;10.00;;;8.50;;
48403;SDS011;34202;52.536;6.042;2023-12-14T01:01:44;10.80;;;9.40;;
48403;SDS011;34202;52.536;6.042;2023-12-14T01:06:44;10.70;;;8.60;;
48403;SDS011;34202;52.536;6.042;2023-12-14T01:11:44;11.80;;;8.10;;
48403;SDS011;34202;52.536;6.042;2023-12-14T01:16:45;12.90;;;10.40;;
48403;SDS011;34202;52.536;6.042;2023-12-14T01:21:45;10.00;;;8.90;;
48403;SDS011;34202;52.536;6.042;2023-12-14T01:26:46;11.80;;;9.10;;
48403;SDS011;34202;52.536;6.042;2023-12-14T01:31:46;11.20;;;9.10;;
48403;SDS011;34202;52.536;6.042;2023-12-14T01:36:46;10.40;;;8.00;;
48403;SDS011;34202;52.536;6.042;2023-12-14T01:41:47;9.00;;;8.10;;
48403;SDS011;34202;52.536;6.042;2023-12-14T01:46:49;10.00;;;8.70;;
48403;SDS011;34202;52.536;6.042;2023-12-14T01:51:49;8.00;;;7.20;;
48403;SDS011;34202;52.536;6.042;2023-12-14T01:56:50;11.80;;;8.50;;
48403;SDS011;34202;52.536;6.042;2023-12-14T02:01:53;9.40;;;7.40;;
48403;SDS011;34202;52.536;6.042;2023-12-14T02:06:56;21.10;;;8.10;;
48403;SDS011;34202;52.536;6.042;2023-12-14T02:11:56;8.00;;;6.30;;
48403;SDS011;34202;52.536;6.042;2023-12-14T02:16:56;9.90;;;7.80;;
48403;SDS011;34202;52.536;6.042;2023-12-14T02:21:57;8.90;;;7.30;;
48403;SDS011;34202;52.536;6.042;2023-12-14T02:26:57;11.30;;;9.00;;
48403;SDS011;34202;52.536;6.042;2023-12-14T02:31:58;8.90;;;8.00;;
48403;SDS011;34202;52.536;6.042;2023-12-14T02:36:58;10.60;;;8.50;;
48403;SDS011;34202;52.536;6.042;2023-12-14T02:41:58;10.60;;;8.10;;
48403;SDS011;34202;52.536;6.042;2023-12-14T02:46:59;15.20;;;8.90;;
48403;SDS011;34202;52.536;6.042;2023-12-14T02:51:59;14.20;;;7.90;;
48403;SDS011;34202;52.536;6.042;2023-12-14T02:56:59;14.40;;;9.70;;
48403;SDS011;34202;52.536;6.042;2023-12-14T03:02:00;10.30;;;8.10;;
48403;SDS011;34202;52.536;6.042;2023-12-14T03:07:00;15.80;;;9.10;;
48403;SDS011;34202;52.536;6.042;2023-12-14T03:12:02;12.50;;;7.90;;
48403;SDS011;34202;52.536;6.042;2023-12-14T03:17:03;10.90;;;8.60;;
48403;SDS011;34202;52.536;6.042;2023-12-14T03:22:03;9.20;;;7.40;;
48403;SDS011;34202;52.536;6.042;2023-12-14T03:27:04;12.60;;;7.60;;
48403;SDS011;34202;52.536;6.042;2023-12-14T03:32:05;10.40;;;8.20;;
48403;SDS011;34202;52.536;6.042;2023-12-14T03:37:05;11.50;;;8.70;;
48403;SDS011;34202;52.536;6.042;2023-12-14T03:42:05;9.10;;;7.50;;
48403;SDS011;34202;52.536;6.042;2023-12-14T03:47:06;10.50;;;7.70;;
48403;SDS011;34202;52.536;6.042;2023-12-14T03:52:06;15.40;;;9.00;;
48403;SDS011;34202;52.536;6.042;2023-12-14T03:57:06;10.50;;;7.70;;
48403;SDS011;34202;52.536;6.042;2023-12-14T04:02:07;7.70;;;6.50;;
48403;SDS011;34202;52.536;6.042;2023-12-14T04:07:07;9.80;;;6.90;;
48403;SDS011;34202;52.536;6.042;2023-12-14T04:12:08;8.00;;;6.00;;
48403;SDS011;34202;52.536;6.042;2023-12-14T04:17:08;7.00;;;5.60;;
48403;SDS011;34202;52.536;6.042;2023-12-14T04:22:08;6.00;;;5.10;;
48403;SDS011;34202;52.536;6.042;2023-12-14T04:27:09;8.40;;;6.80;;
48403;SDS011;34202;52.536;6.042;2023-12-14T04:32:09;7.10;;;6.40;;
48403;SDS011;34202;52.536;6.042;2023-12-14T04:37:10;7.90;;;7.10;;
48403;SDS011;34202;52.536;6.042;2023-12-14T04:42:10;6.80;;;6.00;;
48403;SDS011;34202;52.536;6.042;2023-12-14T04:47:10;7.50;;;6.50;;
48403;SDS011;34202;52.536;6.042;2023-12-14T04:52:11;9.60;;;7.10;;
48403;SDS011;34202;52.536;6.042;2023-12-14T04:57:11;8.80;;;6.90;;
48403;SDS011;34202;52.536;6.042;2023-12-14T05:02:11;8.00;;;6.20;;
48403;SDS011;34202;52.536;6.042;2023-12-14T05:07:12;10.80;;;5.80;;
48403;SDS011;34202;52.536;6.042;2023-12-14T05:12:12;7.20;;;6.40;;
48403;SDS011;34202;52.536;6.042;2023-12-14T05:17:12;9.40;;;7.30;;
48403;SDS011;34202;52.536;6.042;2023-12-14T05:22:13;9.40;;;7.90;;
48403;SDS011;34202;52.536;6.042;2023-12-14T05:27:13;9.20;;;7.60;;
48403;SDS011;34202;52.536;6.042;2023-12-14T05:32:14;9.00;;;7.40;;
48403;SDS011;34202;52.536;6.042;2023-12-14T05:37:14;8.80;;;7.30;;
48403;SDS011;34202;52.536;6.042;2023-12-14T05:42:17;10.40;;;6.80;;
48403;SDS011;34202;52.536;6.042;2023-12-14T05:47:18;8.60;;;6.40;;
48403;SDS011;34202;52.536;6.042;2023-12-14T05:52:18;6.90;;;5.80;;
48403;SDS011;34202;52.536;6.042;2023-12-14T05:57:19;8.40;;;6.90;;
48403;SDS011;34202;52.536;6.042;2023-12-14T06:02:19;7.50;;;6.70;;
48403;SDS011;34202;52.536;6.042;2023-12-14T06:07:19;13.80;;;8.20;;
48403;SDS011;34202;52.536;6.042;2023-12-14T06:12:20;11.50;;;7.50;;
48403;SDS011;34202;52.536;6.042;2023-12-14T06:17:20;8.30;;;7.30;;
48403;SDS011;34202;52.536;6.042;2023-12-14T06:22:20;12.70;;;8.10;;
48403;SDS011;34202;52.536;6.042;2023-12-14T06:27:21;13.90;;;8.30;;
48403;SDS011;34202;52.536;6.042;2023-12-14T06:32:26;11.20;;;9.00;;
48403;SDS011;34202;52.536;6.042;2023-12-14T06:37:26;10.50;;;7.50;;
48403;SDS011;34202;52.536;6.042;2023-12-14T06:42:27;10.10;;;8.30;;
48403;SDS011;34202;52.536;6.042;2023-12-14T06:47:28;10.90;;;7.70;;
48403;SDS011;34202;52.536;6.042;2023-12-14T06:52:28;14.80;;;7.70;;
48403;SDS011;34202;52.536;6.042;2023-12-14T06:57:29;9.70;;;7.20;;
48403;SDS011;34202;52.536;6.042;2023-12-14T07:02:29;13.60;;;8.00;;
48403;SDS011;34202;52.536;6.042;2023-12-14T07:07:30;11.70;;;8.00;;
48403;SDS011;34202;52.536;6.042;2023-12-14T07:12:30;10.10;;;7.50;;
48403;SDS011;34202;52.536;6.042;2023-12-14T07:17:30;9.80;;;6.10;;
48403;SDS011;34202;52.536;6.042;2023-12-14T07:22:31;10.10;;;7.80;;
48403;SDS011;34202;52.536;6.042;2023-12-14T07:27:31;12.40;;;7.60;;
48403;SDS011;34202;52.536;6.042;2023-12-14T07:32:31;11.60;;;8.10;;
48403;SDS011;34202;52.536;6.042;2023-12-14T07:37:32;10.80;;;7.70;;
48403;SDS011;34202;52.536;6.042;2023-12-14T07:42:32;14.40;;;9.20;;
48403;SDS011;34202;52.536;6.042;2023-12-14T07:47:32;11.00;;;8.10;;
48403;SDS011;34202;52.536;6.042;2023-12-14T07:52:33;12.60;;;8.20;;
48403;SDS011;34202;52.536;6.042;2023-12-14T07:57:34;11.80;;;8.30;;
48403;SDS011;34202;52.536;6.042;2023-12-14T08:02:35;12.50;;;8.60;;
48403;SDS011;34202;52.536;6.042;2023-12-14T08:07:35;11.50;;;7.90;;
48403;SDS011;34202;52.536;6.042;2023-12-14T08:12:36;11.30;;;8.40;;
48403;SDS011;34202;52.536;6.042;2023-12-14T08:17:36;11.20;;;8.70;;
48403;SDS011;34202;52.536;6.042;2023-12-14T08:22:37;12.20;;;7.50;;
48403;SDS011;34202;52.536;6.042;2023-12-14T08:27:37;14.60;;;7.90;;
48403;SDS011;34202;52.536;6.042;2023-12-14T08:32:37;10.00;;;6.80;;
48403;SDS011;34202;52.536;6.042;2023-12-14T08:37:38;9.40;;;6.70;;
48403;SDS011;34202;52.536;6.042;2023-12-14T08:42:38;9.80;;;7.60;;
48403;SDS011;34202;52.536;6.042;2023-12-14T08:47:38;15.00;;;7.90;;
48403;SDS011;34202;52.536;6.042;2023-12-14T08:52:39;11.00;;;7.40;;
48403;SDS011;34202;52.536;6.042;2023-12-14T08:57:39;7.70;;;6.50;;
48403;SDS011;34202;52.536;6.042;2023-12-14T09:02:39;7.70;;;6.00;;
48403;SDS011;34202;52.536;6.042;2023-12-14T09:07:40;8.20;;;6.10;;
48403;SDS011;34202;52.536;6.042;2023-12-14T09:12:40;7.10;;;6.40;;
48403;SDS011;34202;52.536;6.042;2023-12-14T09:17:41;9.10;;;7.20;;
48403;SDS011;34202;52.536;6.042;2023-12-14T09:22:43;10.00;;;6.40;;
48403;SDS011;34202;52.536;6.042;2023-12-14T09:27:43;10.70;;;6.90;;
48403;SDS011;34202;52.536;6.042;2023-12-14T09:32:43;10.10;;;6.90;;
48403;SDS011;34202;52.536;6.042;2023-12-14T09:37:44;13.50;;;7.70;;
48403;SDS011;34202;52.536;6.042;2023-12-14T09:42:44;13.70;;;9.30;;
48403;SDS011;34202;52.536;6.042;2023-12-14T09:47:45;16.30;;;8.40;;
48403;SDS011;34202;52.536;6.042;2023-12-14T09:52:46;13.40;;;8.70;;
48403;SDS011;34202;52.536;6.042;2023-12-14T09:57:48;17.80;;;8.90;;
48403;SDS011;34202;52.536;6.042;2023-12-14T10:02:49;13.20;;;8.20;;
48403;SDS011;34202;52.536;6.042;2023-12-14T10:07:50;15.40;;;9.10;;
48403;SDS011;34202;52.536;6.042;2023-12-14T10:12:52;19.00;;;9.50;;
48403;SDS011;34202;52.536;6.042;2023-12-14T10:17:53;15.90;;;10.60;;
48403;SDS011;34202;52.536;6.042;2023-12-14T10:22:55;19.00;;;9.90;;
48403;SDS011;34202;52.536;6.042;2023-12-14T10:27:56;16.20;;;8.00;;
48403;SDS011;34202;52.536;6.042;2023-12-14T10:32:57;18.90;;;10.40;;
48403;SDS011;34202;52.536;6.042;2023-12-14T10:37:58;18.40;;;8.90;;
48403;SDS011;34202;52.536;6.042;2023-12-14T10:48:04;12.40;;;8.00;;
48403;SDS011;34202;52.536;6.042;2023-12-14T10:53:05;12.90;;;8.30;;
48403;SDS011;34202;52.536;6.042;2023-12-14T10:58:07;16.10;;;8.80;;
48403;SDS011;34202;52.536;6.042;2023-12-14T11:03:12;13.50;;;8.60;;
48403;SDS011;34202;52.536;6.042;2023-12-14T11:08:13;13.50;;;8.90;;
48403;SDS011;34202;52.536;6.042;2023-12-14T11:13:15;13.40;;;7.90;;
48403;SDS011;34202;52.536;6.042;2023-12-14T11:23:25;16.00;;;8.40;;
48403;SDS011;34202;52.536;6.042;2023-12-14T11:28:30;13.10;;;8.30;;
48403;SDS011;34202;52.536;6.042;2023-12-14T11:33:32;13.80;;;6.90;;
48403;SDS011;34202;52.536;6.042;2023-12-14T11:38:33;10.10;;;6.90;;
48403;SDS011;34202;52.536;6.042;2023-12-14T11:43:40;12.10;;;7.50;;
48403;SDS011;34202;52.536;6.042;2023-12-14T11:48:45;13.00;;;7.60;;
48403;SDS011;34202;52.536;6.042;2023-12-14T11:53:49;14.20;;;8.60;;
48403;SDS011;34202;52.536;6.042;2023-12-14T11:58:50;22.10;;;9.80;;
48403;SDS011;34202;52.536;6.042;2023-12-14T12:03:50;10.30;;;6.50;;
48403;SDS011;34202;52.536;6.042;2023-12-14T12:08:51;11.40;;;7.40;;
48403;SDS011;34202;52.536;6.042;2023-12-14T12:13:53;11.70;;;7.30;;
48403;SDS011;34202;52.536;6.042;2023-12-14T12:18:54;9.70;;;6.70;;
48403;SDS011;34202;52.536;6.042;2023-12-14T12:23:54;11.90;;;8.40;;
48403;SDS011;34202;52.536;6.042;2023-12-14T12:28:55;12.00;;;7.20;;
48403;SDS011;34202;52.536;6.042;2023-12-14T12:33:55;11.60;;;8.30;;
48403;SDS011;34202;52.536;6.042;2023-12-14T12:38:55;9.70;;;6.80;;
48403;SDS011;34202;52.536;6.042;2023-12-14T12:43:56;12.70;;;7.30;;
48403;SDS011;34202;52.536;6.042;2023-12-14T12:48:56;11.50;;;7.20;;
48403;SDS011;34202;52.536;6.042;2023-12-14T12:53:59;10.50;;;7.30;;
48403;SDS011;34202;52.536;6.042;2023-12-14T12:59:00;8.50;;;6.90;;
48403;SDS011;34202;52.536;6.042;2023-12-14T13:04:00;10.20;;;7.10;;
48403;SDS011;34202;52.536;6.042;2023-12-14T13:09:01;14.00;;;7.70;;
48403;SDS011;34202;52.536;6.042;2023-12-14T13:14:02;9.70;;;7.60;;
48403;SDS011;34202;52.536;6.042;2023-12-14T13:19:07;12.40;;;6.90;;
48403;SDS011;34202;52.536;6.042;2023-12-14T13:24:07;12.30;;;8.10;;
48403;SDS011;34202;52.536;6.042;2023-12-14T13:29:08;11.30;;;7.40;;
48403;SDS011;34202;52.536;6.042;2023-12-14T13:34:08;9.50;;;7.20;;
48403;SDS011;34202;52.536;6.042;2023-12-14T13:39:09;11.30;;;7.10;;
48403;SDS011;34202;52.536;6.042;2023-12-14T13:44:09;8.40;;;6.40;;
48403;SDS011;34202;52.536;6.042;2023-12-14T13:49:10;7.80;;;5.70;;
48403;SDS011;34202;52.536;6.042;2023-12-14T13:54:10;10.30;;;6.50;;
48403;SDS011;34202;52.536;6.042;2023-12-14T13:59:10;9.70;;;6.50;;
48403;SDS011;34202;52.536;6.042;2023-12-14T14:04:11;6.80;;;5.80;;
48403;SDS011;34202;52.536;6.042;2023-12-14T14:09:11;14.50;;;6.90;;
48403;SDS011;34202;52.536;6.042;2023-12-14T14:14:12;10.50;;;7.40;;
48403;SDS011;34202;52.536;6.042;2023-12-14T14:19:13;10.10;;;6.80;;
48403;SDS011;34202;52.536;6.042;2023-12-14T14:24:13;8.30;;;7.20;;
48403;SDS011;34202;52.536;6.042;2023-12-14T14:29:14;9.20;;;6.40;;
48403;SDS011;34202;52.536;6.042;2023-12-14T14:34:14;8.20;;;6.50;;
48403;SDS011;34202;52.536;6.042;2023-12-14T14:39:15;7.40;;;6.20;;
48403;SDS011;34202;52.536;6.042;2023-12-14T14:44:18;8.60;;;6.50;;
48403;SDS011;34202;52.536;6.042;2023-12-14T14:49:18;11.90;;;7.30;;
48403;SDS011;34202;52.536;6.042;2023-12-14T14:54:19;9.10;;;6.40;;
48403;SDS011;34202;52.536;6.042;2023-12-14T14:59:19;11.50;;;8.00;;
48403;SDS011;34202;52.536;6.042;2023-12-14T15:04:19;14.10;;;7.60;;
48403;SDS011;34202;52.536;6.042;2023-12-14T15:09:20;7.80;;;7.00;;
48403;SDS011;34202;52.536;6.042;2023-12-14T15:14:20;9.00;;;7.80;;
48403;SDS011;34202;52.536;6.042;2023-12-14T15:19:20;11.90;;;8.20;;
48403;SDS011;34202;52.536;6.042;2023-12-14T15:24:21;12.60;;;8.80;;
48403;SDS011;34202;52.536;6.042;2023-12-14T15:29:22;13.50;;;8.10;;
48403;SDS011;34202;52.536;6.042;2023-12-14T15:34:22;10.40;;;8.40;;
48403;SDS011;34202;52.536;6.042;2023-12-14T15:39:23;11.40;;;8.90;;
48403;SDS011;34202;52.536;6.042;2023-12-14T15:44:23;11.20;;;8.60;;
48403;SDS011;34202;52.536;6.042;2023-12-14T15:49:24;14.50;;;7.90;;
48403;SDS011;34202;52.536;6.042;2023-12-14T15:54:24;10.40;;;7.80;;
48403;SDS011;34202;52.536;6.042;2023-12-14T15:59:24;11.80;;;8.50;;
48403;SDS011;34202;52.536;6.042;2023-12-14T16:04:25;9.30;;;7.40;;
48403;SDS011;34202;52.536;6.042;2023-12-14T16:09:25;14.90;;;9.00;;
48403;SDS011;34202;52.536;6.042;2023-12-14T16:14:25;13.00;;;8.90;;
48403;SDS011;34202;52.536;6.042;2023-12-14T16:19:26;11.60;;;9.00;;
48403;SDS011;34202;52.536;6.042;2023-12-14T16:24:27;12.90;;;9.30;;
48403;SDS011;34202;52.536;6.042;2023-12-14T16:29:28;11.70;;;8.30;;
48403;SDS011;34202;52.536;6.042;2023-12-14T16:34:28;12.50;;;8.40;;
48403;SDS011;34202;52.536;6.042;2023-12-14T16:39:28;11.70;;;9.10;;
48403;SDS011;34202;52.536;6.042;2023-12-14T16:44:29;10.60;;;8.30;;
48403;SDS011;34202;52.536;6.042;2023-12-14T16:49:30;16.90;;;9.80;;
48403;SDS011;34202;52.536;6.042;2023-12-14T16:54:30;13.50;;;9.10;;
48403;SDS011;34202;52.536;6.042;2023-12-14T16:59:31;12.80;;;8.80;;
48403;SDS011;34202;52.536;6.042;2023-12-14T17:04:31;13.30;;;9.20;;
48403;SDS011;34202;52.536;6.042;2023-12-14T17:09:32;14.60;;;8.80;;
48403;SDS011;34202;52.536;6.042;2023-12-14T17:14:32;14.00;;;9.20;;
48403;SDS011;34202;52.536;6.042;2023-12-14T17:19:33;11.10;;;9.40;;
48403;SDS011;34202;52.536;6.042;2023-12-14T17:24:34;13.70;;;9.80;;
48403;SDS011;34202;52.536;6.042;2023-12-14T17:29:34;14.70;;;10.50;;
48403;SDS011;34202;52.536;6.042;2023-12-14T17:34:34;13.80;;;9.50;;
48403;SDS011;34202;52.536;6.042;2023-12-14T17:39:35;14.00;;;9.30;;
48403;SDS011;34202;52.536;6.042;2023-12-14T17:44:35;12.10;;;9.30;;
48403;SDS011;34202;52.536;6.042;2023-12-14T17:49:36;12.70;;;9.50;;
48403;SDS011;34202;52.536;6.042;2023-12-14T17:54:36;14.70;;;10.50;;
48403;SDS011;34202;52.536;6.042;2023-12-14T17:59:40;13.60;;;9.30;;
48403;SDS011;34202;52.536;6.042;2023-12-14T18:04:41;15.60;;;9.90;;
48403;SDS011;34202;52.536;6.042;2023-12-14T18:09:41;12.00;;;9.90;;
48403;SDS011;34202;52.536;6.042;2023-12-14T18:14:41;14.00;;;9.90;;
48403;SDS011;34202;52.536;6.042;2023-12-14T18:19:42;15.60;;;11.40;;
48403;SDS011;34202;52.536;6.042;2023-12-14T18:24:42;14.00;;;10.20;;
48403;SDS011;34202;52.536;6.042;2023-12-14T18:29:42;15.60;;;11.50;;
48403;SDS011;34202;52.536;6.042;2023-12-14T18:34:43;19.30;;;11.80;;
48403;SDS011;34202;52.536;6.042;2023-12-14T18:39:43;16.90;;;12.80;;
48403;SDS011;34202;52.536;6.042;2023-12-14T18:44:44;19.50;;;12.00;;
48403;SDS011;34202;52.536;6.042;2023-12-14T18:49:45;17.10;;;11.80;;
48403;SDS011;34202;52.536;6.042;2023-12-14T18:54:45;15.50;;;11.80;;
48403;SDS011;34202;52.536;6.042;2023-12-14T18:59:46;20.10;;;13.10;;
48403;SDS011;34202;52.536;6.042;2023-12-14T19:04:46;21.20;;;14.80;;
48403;SDS011;34202;52.536;6.042;2023-12-14T19:09:47;17.80;;;13.60;;
48403;SDS011;34202;52.536;6.042;2023-12-14T19:14:47;17.90;;;14.60;;
48403;SDS011;34202;52.536;6.042;2023-12-14T19:19:47;22.90;;;14.90;;
48403;SDS011;34202;52.536;6.042;2023-12-14T19:24:48;20.10;;;13.50;;
48403;SDS011;34202;52.536;6.042;2023-12-14T19:29:48;22.00;;;13.50;;
48403;SDS011;34202;52.536;6.042;2023-12-14T19:34:48;20.40;;;13.60;;
48403;SDS011;34202;52.536;6.042;2023-12-14T19:39:49;19.90;;;13.70;;
48403;SDS011;34202;52.536;6.042;2023-12-14T19:44:49;16.50;;;12.80;;
48403;SDS011;34202;52.536;6.042;2023-12-14T19:49:50;23.20;;;14.00;;
48403;SDS011;34202;52.536;6.042;2023-12-14T19:54:51;23.90;;;14.70;;
48403;SDS011;34202;52.536;6.042;2023-12-14T19:59:52;20.70;;;13.40;;
48403;SDS011;34202;52.536;6.042;2023-12-14T20:04:52;22.50;;;14.20;;
48403;SDS011;34202;52.536;6.042;2023-12-14T20:09:52;20.40;;;13.60;;
48403;SDS011;34202;52.536;6.042;2023-12-14T20:14:53;20.00;;;13.90;;
48403;SDS011;34202;52.536;6.042;2023-12-14T20:19:53;20.30;;;13.50;;
48403;SDS011;34202;52.536;6.042;2023-12-14T20:24:54;22.70;;;13.10;;
48403;SDS011;34202;52.536;6.042;2023-12-14T20:29:54;20.00;;;14.00;;
48403;SDS011;34202;52.536;6.042;2023-12-14T20:34:54;22.10;;;14.70;;
48403;SDS011;34202;52.536;6.042;2023-12-14T20:39:55;21.20;;;14.60;;
48403;SDS011;34202;52.536;6.042;2023-12-14T20:44:55;23.70;;;13.80;;
48403;SDS011;34202;52.536;6.042;2023-12-14T20:49:56;19.50;;;13.80;;
48403;SDS011;34202;52.536;6.042;2023-12-14T20:54:56;24.40;;;14.00;;
48403;SDS011;34202;52.536;6.042;2023-12-14T20:59:57;21.40;;;14.20;;
48403;SDS011;34202;52.536;6.042;2023-12-14T21:04:57;28.00;;;13.50;;
48403;SDS011;34202;52.536;6.042;2023-12-14T21:09:57;19.20;;;11.90;;
48403;SDS011;34202;52.536;6.042;2023-12-14T21:14:58;19.70;;;13.10;;
48403;SDS011;34202;52.536;6.042;2023-12-14T21:19:59;29.80;;;14.60;;
48403;SDS011;34202;52.536;6.042;2023-12-14T21:24:59;20.90;;;12.50;;
48403;SDS011;34202;52.536;6.042;2023-12-14T21:30:01;18.00;;;11.50;;
48403;SDS011;34202;52.536;6.042;2023-12-14T21:35:01;16.90;;;12.00;;
48403;SDS011;34202;52.536;6.042;2023-12-14T21:40:01;21.70;;;12.00;;
48403;SDS011;34202;52.536;6.042;2023-12-14T21:45:02;19.30;;;11.40;;
48403;SDS011;34202;52.536;6.042;2023-12-14T21:50:03;22.80;;;11.50;;
48403;SDS011;34202;52.536;6.042;2023-12-14T21:55:04;17.90;;;11.30;;
48403;SDS011;34202;52.536;6.042;2023-12-14T22:00:05;18.60;;;10.30;;
48403;SDS011;34202;52.536;6.042;2023-12-14T22:05:06;16.30;;;10.00;;
48403;SDS011;34202;52.536;6.042;2023-12-14T22:10:07;14.80;;;10.20;;
48403;SDS011;34202;52.536;6.042;2023-12-14T22:15:10;13.40;;;9.50;;
48403;SDS011;34202;52.536;6.042;2023-12-14T22:20:11;18.70;;;10.30;;
48403;SDS011;34202;52.536;6.042;2023-12-14T22:25:11;15.10;;;9.90;;
48403;SDS011;34202;52.536;6.042;2023-12-14T22:30:12;13.20;;;8.90;;
48403;SDS011;34202;52.536;6.042;2023-12-14T22:35:13;15.50;;;9.00;;
48403;SDS011;34202;52.536;6.042;2023-12-14T22:40:14;17.10;;;8.00;;
48403;SDS011;34202;52.536;6.042;2023-12-14T22:45:14;13.50;;;8.80;;
48403;SDS011;34202;52.536;6.042;2023-12-14T22:50:14;13.70;;;9.40;;
48403;SDS011;34202;52.536;6.042;2023-12-14T22:55:15;17.30;;;9.20;;
48403;SDS011;34202;52.536;6.042;2023-12-14T23:00:15;14.60;;;9.30;;
48403;SDS011;34202;52.536;6.042;2023-12-14T23:05:21;11.70;;;8.90;;
48403;SDS011;34202;52.536;6.042;2023-12-14T23:10:22;14.30;;;8.00;;
48403;SDS011;34202;52.536;6.042;2023-12-14T23:15:22;16.40;;;11.00;;
48403;SDS011;34202;52.536;6.042;2023-12-14T23:20:22;12.90;;;9.20;;
48403;SDS011;34202;52.536;6.042;2023-12-14T23:25:23;14.10;;;9.10;;
48403;SDS011;34202;52.536;6.042;2023-12-14T23:30:25;16.90;;;10.00;;
48403;SDS011;34202;52.536;6.042;2023-12-14T23:35:27;16.40;;;9.70;;
48403;SDS011;34202;52.536;6.042;2023-12-14T23:40:27;12.60;;;8.90;;
48403;SDS011;34202;52.536;6.042;2023-12-14T23:45:28;15.40;;;10.60;;
48403;SDS011;34202;52.536;6.042;2023-12-14T23:50:28;14.90;;;9.20;;
48403;SDS011;34202;52.536;6.042;2023-12-14T23:55:29;18.60;;;9.10;;
